KCVG/CVG METAR and TAF weather

Enter ICAO airport designator
Station Type Date Time Source
KCVG METAR 2019/12/14 05:52 UTC NOAA

KCVG 140552Z 35009KT 3SM -RA BR FEW004 BKN021 OVC029 05/04 A2971 RMK AO2 SFC VIS 4 CIG 009 36R SLP062 P0002 60019 T00500039 10067 20050 58024


Station Type Date Time Source
KCVG Decoded METAR 2019/12/14 05:52 UTC NOAA

CINCINNATI/NORTHERN KY INTERNATIONAL , KY, United States (KCVG) 39-03N 084-40W 269M
Dec 14, 2019 - 12:52 AM EST / 2019.12.14 0552 UTC
Wind: from the N (350 degrees) at 10 MPH (9 KT):0
Visibility: 3 mile(s):0
Sky conditions: overcast
Weather: light rain; mist
Precipitation last hour: 0.02 inches
Temperature: 41.0 F (5.0 C)
Dew Point: 39.0 F (3.9 C)
Relative Humidity: 92%
Pressure (altimeter): 29.71 in. Hg (1006 hPa)
Pressure tendency: 0.07 inches (2.4 hPa) lower than three hours ago
ob: KCVG 140552Z 35009KT 3SM -RA BR FEW004 BKN021 OVC029 05/04 A2971 RMK AO2 SFC VIS 4 CIG 009 36R SLP062 P0002 60019 T00500039 10067 20050 58024
cycle: 6

Station Type Date Time Source
KCVG TAF 2019/12/14 06:42 UTC NOAA

TAF KCVG 140540Z 1406/1512 36005KT 4SM -RA BR SCT004 OVC010
FM140700 35006KT 4SM -RA BR OVC004
FM141100 34006KT 5SM -RA BR OVC007
TEMPO 1411/1413 SCT007 OVC040
FM141400 32006KT P6SM OVC007
FM141600 29008KT P6SM OVC012
FM142000 27009KT P6SM OVC025
FM150400 27007KT P6SM FEW025 BKN150

Example: see airport list